sensor_id;sensor_type;location;lat;lon;timestamp;P1;durP1;ratioP1;P2;durP2;ratioP2
18376;SDS011;9315;52.624;13.544;2023-04-25T00:00:23;4.87;;;2.20;;
18376;SDS011;9315;52.624;13.544;2023-04-25T00:02:51;6.90;;;2.07;;
18376;SDS011;9315;52.624;13.544;2023-04-25T00:05:18;4.33;;;2.47;;
18376;SDS011;9315;52.624;13.544;2023-04-25T00:07:45;3.60;;;2.30;;
18376;SDS011;9315;52.624;13.544;2023-04-25T00:10:13;6.30;;;2.60;;
18376;SDS011;9315;52.624;13.544;2023-04-25T00:12:40;3.47;;;2.10;;
18376;SDS011;9315;52.624;13.544;2023-04-25T00:15:08;4.80;;;2.37;;
18376;SDS011;9315;52.624;13.544;2023-04-25T00:17:36;3.43;;;1.90;;
18376;SDS011;9315;52.624;13.544;2023-04-25T00:20:05;4.70;;;2.20;;
18376;SDS011;9315;52.624;13.544;2023-04-25T00:22:35;6.97;;;2.50;;
18376;SDS011;9315;52.624;13.544;2023-04-25T00:25:06;4.53;;;2.20;;
18376;SDS011;9315;52.624;13.544;2023-04-25T00:27:33;8.60;;;2.27;;
18376;SDS011;9315;52.624;13.544;2023-04-25T00:30:00;6.03;;;2.33;;
18376;SDS011;9315;52.624;13.544;2023-04-25T00:32:28;5.00;;;2.10;;
18376;SDS011;9315;52.624;13.544;2023-04-25T00:34:55;6.27;;;2.00;;
18376;SDS011;9315;52.624;13.544;2023-04-25T00:37:24;4.33;;;2.13;;
18376;SDS011;9315;52.624;13.544;2023-04-25T00:39:51;3.90;;;2.20;;
18376;SDS011;9315;52.624;13.544;2023-04-25T00:42:19;5.63;;;2.00;;
18376;SDS011;9315;52.624;13.544;2023-04-25T00:44:47;4.07;;;2.00;;
18376;SDS011;9315;52.624;13.544;2023-04-25T00:47:14;4.77;;;1.60;;
18376;SDS011;9315;52.624;13.544;2023-04-25T00:49:42;2.50;;;1.67;;
18376;SDS011;9315;52.624;13.544;2023-04-25T00:52:09;4.90;;;1.90;;
18376;SDS011;9315;52.624;13.544;2023-04-25T00:54:37;6.97;;;2.07;;
18376;SDS011;9315;52.624;13.544;2023-04-25T00:57:04;4.70;;;1.90;;
18376;SDS011;9315;52.624;13.544;2023-04-25T00:59:32;5.37;;;1.50;;
18376;SDS011;9315;52.624;13.544;2023-04-25T01:02:00;5.77;;;1.73;;
18376;SDS011;9315;52.624;13.544;2023-04-25T01:04:27;6.30;;;1.70;;
18376;SDS011;9315;52.624;13.544;2023-04-25T01:06:55;8.27;;;2.67;;
18376;SDS011;9315;52.624;13.544;2023-04-25T01:09:23;6.00;;;1.83;;
18376;SDS011;9315;52.624;13.544;2023-04-25T01:11:52;5.23;;;1.90;;
18376;SDS011;9315;52.624;13.544;2023-04-25T01:14:19;3.80;;;1.70;;
18376;SDS011;9315;52.624;13.544;2023-04-25T01:16:46;8.10;;;1.80;;
18376;SDS011;9315;52.624;13.544;2023-04-25T01:19:15;3.73;;;1.63;;
18376;SDS011;9315;52.624;13.544;2023-04-25T01:21:44;8.20;;;2.60;;
18376;SDS011;9315;52.624;13.544;2023-04-25T01:24:11;5.83;;;1.97;;
18376;SDS011;9315;52.624;13.544;2023-04-25T01:26:39;5.90;;;2.20;;
18376;SDS011;9315;52.624;13.544;2023-04-25T01:29:16;8.83;;;2.17;;
18376;SDS011;9315;52.624;13.544;2023-04-25T01:31:45;7.93;;;2.13;;
18376;SDS011;9315;52.624;13.544;2023-04-25T01:34:15;5.40;;;1.90;;
18376;SDS011;9315;52.624;13.544;2023-04-25T01:36:42;5.70;;;1.90;;
18376;SDS011;9315;52.624;13.544;2023-04-25T01:39:10;6.50;;;2.03;;
18376;SDS011;9315;52.624;13.544;2023-04-25T01:41:37;4.57;;;1.77;;
18376;SDS011;9315;52.624;13.544;2023-04-25T01:44:04;6.60;;;2.30;;
18376;SDS011;9315;52.624;13.544;2023-04-25T01:46:32;6.67;;;2.40;;
18376;SDS011;9315;52.624;13.544;2023-04-25T01:49:01;5.33;;;2.07;;
18376;SDS011;9315;52.624;13.544;2023-04-25T01:51:29;4.27;;;2.17;;
18376;SDS011;9315;52.624;13.544;2023-04-25T01:53:57;4.23;;;2.30;;
18376;SDS011;9315;52.624;13.544;2023-04-25T01:56:29;5.43;;;2.30;;
18376;SDS011;9315;52.624;13.544;2023-04-25T01:58:59;7.03;;;2.40;;
18376;SDS011;9315;52.624;13.544;2023-04-25T02:01:26;11.07;;;2.20;;
18376;SDS011;9315;52.624;13.544;2023-04-25T02:03:54;6.10;;;2.20;;
18376;SDS011;9315;52.624;13.544;2023-04-25T02:06:21;7.93;;;2.80;;
18376;SDS011;9315;52.624;13.544;2023-04-25T02:08:49;6.70;;;2.30;;
18376;SDS011;9315;52.624;13.544;2023-04-25T02:11:16;5.90;;;2.47;;
18376;SDS011;9315;52.624;13.544;2023-04-25T02:13:43;6.40;;;2.10;;
18376;SDS011;9315;52.624;13.544;2023-04-25T02:16:12;9.13;;;2.47;;
18376;SDS011;9315;52.624;13.544;2023-04-25T02:18:40;4.67;;;2.13;;
18376;SDS011;9315;52.624;13.544;2023-04-25T02:21:07;6.70;;;2.37;;
18376;SDS011;9315;52.624;13.544;2023-04-25T02:23:34;10.27;;;2.57;;
18376;SDS011;9315;52.624;13.544;2023-04-25T02:26:01;7.80;;;2.37;;
18376;SDS011;9315;52.624;13.544;2023-04-25T02:28:29;8.87;;;2.33;;
18376;SDS011;9315;52.624;13.544;2023-04-25T02:30:56;6.83;;;2.60;;
18376;SDS011;9315;52.624;13.544;2023-04-25T02:33:23;9.23;;;2.70;;
18376;SDS011;9315;52.624;13.544;2023-04-25T02:35:50;6.87;;;2.40;;
18376;SDS011;9315;52.624;13.544;2023-04-25T02:38:17;6.77;;;2.60;;
18376;SDS011;9315;52.624;13.544;2023-04-25T02:40:44;7.17;;;2.50;;
18376;SDS011;9315;52.624;13.544;2023-04-25T02:43:11;7.47;;;3.00;;
18376;SDS011;9315;52.624;13.544;2023-04-25T02:45:39;10.07;;;3.03;;
18376;SDS011;9315;52.624;13.544;2023-04-25T02:48:06;8.60;;;2.83;;
18376;SDS011;9315;52.624;13.544;2023-04-25T02:50:33;6.37;;;2.60;;
18376;SDS011;9315;52.624;13.544;2023-04-25T02:53:00;7.57;;;2.83;;
18376;SDS011;9315;52.624;13.544;2023-04-25T02:55:27;8.83;;;2.97;;
18376;SDS011;9315;52.624;13.544;2023-04-25T02:57:54;8.80;;;3.13;;
18376;SDS011;9315;52.624;13.544;2023-04-25T03:00:22;7.43;;;2.63;;
18376;SDS011;9315;52.624;13.544;2023-04-25T03:02:50;11.70;;;3.00;;
18376;SDS011;9315;52.624;13.544;2023-04-25T03:05:18;7.37;;;2.90;;
18376;SDS011;9315;52.624;13.544;2023-04-25T03:07:45;7.53;;;2.63;;
18376;SDS011;9315;52.624;13.544;2023-04-25T03:10:12;8.97;;;3.00;;
18376;SDS011;9315;52.624;13.544;2023-04-25T03:12:40;9.63;;;3.33;;
18376;SDS011;9315;52.624;13.544;2023-04-25T03:15:07;6.87;;;2.97;;
18376;SDS011;9315;52.624;13.544;2023-04-25T03:17:34;8.97;;;4.17;;
18376;SDS011;9315;52.624;13.544;2023-04-25T03:20:02;8.30;;;3.20;;
18376;SDS011;9315;52.624;13.544;2023-04-25T03:22:30;8.50;;;3.20;;
18376;SDS011;9315;52.624;13.544;2023-04-25T03:24:57;10.67;;;3.27;;
18376;SDS011;9315;52.624;13.544;2023-04-25T03:27:26;9.43;;;3.60;;
18376;SDS011;9315;52.624;13.544;2023-04-25T03:29:55;8.07;;;3.00;;
18376;SDS011;9315;52.624;13.544;2023-04-25T03:32:22;9.83;;;3.57;;
18376;SDS011;9315;52.624;13.544;2023-04-25T03:34:49;9.63;;;3.43;;
18376;SDS011;9315;52.624;13.544;2023-04-25T03:37:16;9.37;;;3.40;;
18376;SDS011;9315;52.624;13.544;2023-04-25T03:39:43;7.90;;;3.07;;
18376;SDS011;9315;52.624;13.544;2023-04-25T03:42:11;10.37;;;3.40;;
18376;SDS011;9315;52.624;13.544;2023-04-25T03:44:38;13.07;;;3.33;;
18376;SDS011;9315;52.624;13.544;2023-04-25T03:47:05;8.80;;;3.10;;
18376;SDS011;9315;52.624;13.544;2023-04-25T03:49:32;6.10;;;3.20;;
18376;SDS011;9315;52.624;13.544;2023-04-25T03:52:01;11.23;;;3.37;;
18376;SDS011;9315;52.624;13.544;2023-04-25T03:54:29;11.47;;;3.37;;
18376;SDS011;9315;52.624;13.544;2023-04-25T03:56:56;8.07;;;3.10;;
18376;SDS011;9315;52.624;13.544;2023-04-25T03:59:23;9.67;;;3.40;;
18376;SDS011;9315;52.624;13.544;2023-04-25T04:01:52;10.30;;;3.20;;
18376;SDS011;9315;52.624;13.544;2023-04-25T04:04:22;9.60;;;3.27;;
18376;SDS011;9315;52.624;13.544;2023-04-25T04:06:50;9.73;;;3.67;;
18376;SDS011;9315;52.624;13.544;2023-04-25T04:09:19;7.40;;;3.10;;
18376;SDS011;9315;52.624;13.544;2023-04-25T04:11:46;13.57;;;3.63;;
18376;SDS011;9315;52.624;13.544;2023-04-25T04:14:16;11.50;;;3.70;;
18376;SDS011;9315;52.624;13.544;2023-04-25T04:16:44;10.83;;;4.13;;
18376;SDS011;9315;52.624;13.544;2023-04-25T04:19:11;8.20;;;3.53;;
18376;SDS011;9315;52.624;13.544;2023-04-25T04:21:40;15.63;;;4.10;;
18376;SDS011;9315;52.624;13.544;2023-04-25T04:24:07;12.97;;;3.93;;
18376;SDS011;9315;52.624;13.544;2023-04-25T04:26:34;7.97;;;4.17;;
18376;SDS011;9315;52.624;13.544;2023-04-25T04:29:03;11.07;;;3.87;;
18376;SDS011;9315;52.624;13.544;2023-04-25T04:31:30;14.10;;;3.40;;
18376;SDS011;9315;52.624;13.544;2023-04-25T04:33:58;10.77;;;3.60;;
18376;SDS011;9315;52.624;13.544;2023-04-25T04:36:27;7.90;;;2.87;;
18376;SDS011;9315;52.624;13.544;2023-04-25T04:38:55;11.47;;;3.23;;
18376;SDS011;9315;52.624;13.544;2023-04-25T04:41:22;37.47;;;4.40;;
18376;SDS011;9315;52.624;13.544;2023-04-25T04:43:51;12.87;;;3.43;;
18376;SDS011;9315;52.624;13.544;2023-04-25T04:46:19;11.67;;;3.60;;
18376;SDS011;9315;52.624;13.544;2023-04-25T04:48:46;11.33;;;3.13;;
18376;SDS011;9315;52.624;13.544;2023-04-25T04:51:13;9.40;;;3.27;;
18376;SDS011;9315;52.624;13.544;2023-04-25T04:53:40;12.03;;;3.30;;
18376;SDS011;9315;52.624;13.544;2023-04-25T04:56:08;13.97;;;3.70;;
18376;SDS011;9315;52.624;13.544;2023-04-25T04:58:35;10.50;;;3.33;;
18376;SDS011;9315;52.624;13.544;2023-04-25T05:01:03;8.70;;;2.93;;
18376;SDS011;9315;52.624;13.544;2023-04-25T05:03:30;8.07;;;3.20;;
18376;SDS011;9315;52.624;13.544;2023-04-25T05:05:57;11.53;;;3.03;;
18376;SDS011;9315;52.624;13.544;2023-04-25T05:08:24;7.73;;;3.13;;
18376;SDS011;9315;52.624;13.544;2023-04-25T05:10:51;6.50;;;2.70;;
18376;SDS011;9315;52.624;13.544;2023-04-25T05:13:19;13.43;;;3.47;;
18376;SDS011;9315;52.624;13.544;2023-04-25T05:15:46;7.87;;;3.23;;
18376;SDS011;9315;52.624;13.544;2023-04-25T05:18:13;9.40;;;3.10;;
18376;SDS011;9315;52.624;13.544;2023-04-25T05:20:40;7.40;;;2.97;;
18376;SDS011;9315;52.624;13.544;2023-04-25T05:23:08;9.83;;;3.03;;
18376;SDS011;9315;52.624;13.544;2023-04-25T05:25:35;7.63;;;3.00;;
18376;SDS011;9315;52.624;13.544;2023-04-25T05:28:02;5.77;;;2.80;;
18376;SDS011;9315;52.624;13.544;2023-04-25T05:30:31;8.23;;;2.97;;
18376;SDS011;9315;52.624;13.544;2023-04-25T05:32:58;11.23;;;3.00;;
18376;SDS011;9315;52.624;13.544;2023-04-25T05:35:25;10.33;;;3.40;;
18376;SDS011;9315;52.624;13.544;2023-04-25T05:37:52;8.40;;;2.90;;
18376;SDS011;9315;52.624;13.544;2023-04-25T05:40:20;10.20;;;3.03;;
18376;SDS011;9315;52.624;13.544;2023-04-25T05:50:01;8.60;;;3.00;;
18376;SDS011;9315;52.624;13.544;2023-04-25T05:52:28;6.03;;;2.40;;
18376;SDS011;9315;52.624;13.544;2023-04-25T05:54:55;7.70;;;2.57;;
18376;SDS011;9315;52.624;13.544;2023-04-25T05:57:25;8.13;;;3.23;;
18376;SDS011;9315;52.624;13.544;2023-04-25T05:59:53;12.20;;;3.30;;
18376;SDS011;9315;52.624;13.544;2023-04-25T06:02:21;6.87;;;3.30;;
18376;SDS011;9315;52.624;13.544;2023-04-25T06:04:51;10.10;;;2.93;;
18376;SDS011;9315;52.624;13.544;2023-04-25T06:07:19;9.33;;;3.00;;
18376;SDS011;9315;52.624;13.544;2023-04-25T06:09:47;9.50;;;3.27;;
18376;SDS011;9315;52.624;13.544;2023-04-25T06:12:14;6.93;;;2.90;;
18376;SDS011;9315;52.624;13.544;2023-04-25T06:14:41;9.80;;;3.20;;
18376;SDS011;9315;52.624;13.544;2023-04-25T06:17:08;6.23;;;3.10;;
18376;SDS011;9315;52.624;13.544;2023-04-25T06:19:35;9.17;;;3.40;;
18376;SDS011;9315;52.624;13.544;2023-04-25T06:22:03;10.87;;;2.93;;
18376;SDS011;9315;52.624;13.544;2023-04-25T06:24:30;7.97;;;3.30;;
18376;SDS011;9315;52.624;13.544;2023-04-25T06:26:57;9.07;;;3.23;;
18376;SDS011;9315;52.624;13.544;2023-04-25T06:29:24;8.87;;;3.30;;
18376;SDS011;9315;52.624;13.544;2023-04-25T06:31:54;10.60;;;3.43;;
18376;SDS011;9315;52.624;13.544;2023-04-25T06:34:21;8.77;;;4.13;;
18376;SDS011;9315;52.624;13.544;2023-04-25T06:36:48;10.80;;;3.30;;
18376;SDS011;9315;52.624;13.544;2023-04-25T06:39:22;9.60;;;3.70;;
18376;SDS011;9315;52.624;13.544;2023-04-25T06:42:27;11.80;;;4.23;;
18376;SDS011;9315;52.624;13.544;2023-04-25T06:44:54;10.13;;;3.83;;
18376;SDS011;9315;52.624;13.544;2023-04-25T06:47:21;10.03;;;3.40;;
18376;SDS011;9315;52.624;13.544;2023-04-25T06:49:49;7.77;;;3.30;;
18376;SDS011;9315;52.624;13.544;2023-04-25T06:52:16;11.10;;;3.93;;
18376;SDS011;9315;52.624;13.544;2023-04-25T06:54:49;9.30;;;3.80;;
18376;SDS011;9315;52.624;13.544;2023-04-25T06:57:20;7.23;;;3.53;;
18376;SDS011;9315;52.624;13.544;2023-04-25T06:59:47;14.77;;;3.50;;
18376;SDS011;9315;52.624;13.544;2023-04-25T07:02:14;8.00;;;3.53;;
18376;SDS011;9315;52.624;13.544;2023-04-25T07:04:42;8.77;;;3.97;;
18376;SDS011;9315;52.624;13.544;2023-04-25T07:07:09;8.07;;;3.57;;
18376;SDS011;9315;52.624;13.544;2023-04-25T07:09:36;10.63;;;3.90;;
18376;SDS011;9315;52.624;13.544;2023-04-25T07:12:03;8.73;;;3.30;;
18376;SDS011;9315;52.624;13.544;2023-04-25T07:14:31;10.23;;;3.87;;
18376;SDS011;9315;52.624;13.544;2023-04-25T07:16:58;9.37;;;4.20;;
18376;SDS011;9315;52.624;13.544;2023-04-25T07:19:25;8.73;;;3.40;;
18376;SDS011;9315;52.624;13.544;2023-04-25T07:21:55;9.17;;;3.63;;
18376;SDS011;9315;52.624;13.544;2023-04-25T07:24:22;6.67;;;3.40;;
18376;SDS011;9315;52.624;13.544;2023-04-25T07:26:50;7.13;;;3.20;;
18376;SDS011;9315;52.624;13.544;2023-04-25T07:29:17;9.30;;;3.40;;
18376;SDS011;9315;52.624;13.544;2023-04-25T07:31:44;10.07;;;3.47;;
18376;SDS011;9315;52.624;13.544;2023-04-25T07:34:16;8.93;;;3.07;;
18376;SDS011;9315;52.624;13.544;2023-04-25T07:36:43;11.50;;;3.57;;
18376;SDS011;9315;52.624;13.544;2023-04-25T07:39:11;11.40;;;3.10;;
18376;SDS011;9315;52.624;13.544;2023-04-25T07:41:38;11.43;;;3.60;;
18376;SDS011;9315;52.624;13.544;2023-04-25T07:44:05;9.87;;;3.00;;
18376;SDS011;9315;52.624;13.544;2023-04-25T07:46:32;11.90;;;2.90;;
18376;SDS011;9315;52.624;13.544;2023-04-25T07:49:00;13.50;;;2.77;;
18376;SDS011;9315;52.624;13.544;2023-04-25T07:51:27;11.10;;;3.10;;
18376;SDS011;9315;52.624;13.544;2023-04-25T07:53:54;15.13;;;3.30;;
18376;SDS011;9315;52.624;13.544;2023-04-25T07:56:21;9.43;;;2.60;;
18376;SDS011;9315;52.624;13.544;2023-04-25T07:58:48;8.27;;;2.70;;
18376;SDS011;9315;52.624;13.544;2023-04-25T08:01:16;11.40;;;2.70;;
18376;SDS011;9315;52.624;13.544;2023-04-25T08:03:47;9.03;;;2.93;;
18376;SDS011;9315;52.624;13.544;2023-04-25T08:06:15;9.80;;;2.73;;
18376;SDS011;9315;52.624;13.544;2023-04-25T08:08:42;8.73;;;2.87;;
18376;SDS011;9315;52.624;13.544;2023-04-25T08:11:10;13.53;;;3.47;;
18376;SDS011;9315;52.624;13.544;2023-04-25T08:13:37;18.50;;;3.00;;
18376;SDS011;9315;52.624;13.544;2023-04-25T08:16:04;18.30;;;3.77;;
18376;SDS011;9315;52.624;13.544;2023-04-25T08:18:34;11.93;;;2.80;;
18376;SDS011;9315;52.624;13.544;2023-04-25T08:21:01;15.80;;;3.10;;
18376;SDS011;9315;52.624;13.544;2023-04-25T08:23:28;11.73;;;3.47;;
18376;SDS011;9315;52.624;13.544;2023-04-25T08:25:55;17.73;;;3.50;;
18376;SDS011;9315;52.624;13.544;2023-04-25T08:28:22;18.27;;;3.53;;
18376;SDS011;9315;52.624;13.544;2023-04-25T08:30:49;24.63;;;4.07;;
18376;SDS011;9315;52.624;13.544;2023-04-25T08:33:19;22.33;;;3.53;;
18376;SDS011;9315;52.624;13.544;2023-04-25T08:35:47;17.93;;;2.67;;
18376;SDS011;9315;52.624;13.544;2023-04-25T08:38:14;23.87;;;4.07;;
18376;SDS011;9315;52.624;13.544;2023-04-25T08:40:41;18.40;;;3.03;;
18376;SDS011;9315;52.624;13.544;2023-04-25T08:43:12;16.13;;;2.97;;
18376;SDS011;9315;52.624;13.544;2023-04-25T08:45:41;16.17;;;3.40;;
18376;SDS011;9315;52.624;13.544;2023-04-25T08:48:12;20.63;;;3.43;;
18376;SDS011;9315;52.624;13.544;2023-04-25T08:50:45;12.80;;;2.50;;
18376;SDS011;9315;52.624;13.544;2023-04-25T08:53:22;15.90;;;3.20;;
18376;SDS011;9315;52.624;13.544;2023-04-25T08:55:57;13.13;;;3.30;;
18376;SDS011;9315;52.624;13.544;2023-04-25T08:58:36;17.37;;;2.60;;
18376;SDS011;9315;52.624;13.544;2023-04-25T09:01:04;14.13;;;2.97;;
18376;SDS011;9315;52.624;13.544;2023-04-25T09:03:35;9.13;;;2.57;;
18376;SDS011;9315;52.624;13.544;2023-04-25T09:06:03;15.67;;;2.70;;
18376;SDS011;9315;52.624;13.544;2023-04-25T09:08:33;12.97;;;2.60;;
18376;SDS011;9315;52.624;13.544;2023-04-25T09:11:02;16.40;;;3.30;;
18376;SDS011;9315;52.624;13.544;2023-04-25T09:13:32;11.60;;;2.23;;
18376;SDS011;9315;52.624;13.544;2023-04-25T09:15:59;14.40;;;2.63;;
18376;SDS011;9315;52.624;13.544;2023-04-25T09:18:28;14.33;;;2.93;;
18376;SDS011;9315;52.624;13.544;2023-04-25T09:21:07;13.13;;;2.70;;
18376;SDS011;9315;52.624;13.544;2023-04-25T09:26:19;10.53;;;2.60;;
18376;SDS011;9315;52.624;13.544;2023-04-25T09:28:47;19.00;;;3.43;;
18376;SDS011;9315;52.624;13.544;2023-04-25T09:31:23;18.03;;;2.57;;
18376;SDS011;9315;52.624;13.544;2023-04-25T09:34:01;16.93;;;3.10;;
18376;SDS011;9315;52.624;13.544;2023-04-25T09:36:29;19.93;;;2.53;;
18376;SDS011;9315;52.624;13.544;2023-04-25T09:38:59;10.43;;;3.10;;
18376;SDS011;9315;52.624;13.544;2023-04-25T09:41:41;15.30;;;2.40;;
18376;SDS011;9315;52.624;13.544;2023-04-25T09:44:08;11.37;;;2.80;;
18376;SDS011;9315;52.624;13.544;2023-04-25T09:46:39;12.90;;;2.60;;
18376;SDS011;9315;52.624;13.544;2023-04-25T09:49:07;14.37;;;2.90;;
18376;SDS011;9315;52.624;13.544;2023-04-25T09:51:34;17.93;;;2.70;;
18376;SDS011;9315;52.624;13.544;2023-04-25T09:54:01;15.10;;;2.73;;
18376;SDS011;9315;52.624;13.544;2023-04-25T09:56:30;13.97;;;2.90;;
18376;SDS011;9315;52.624;13.544;2023-04-25T09:59:03;12.73;;;2.57;;
18376;SDS011;9315;52.624;13.544;2023-04-25T10:01:33;13.23;;;2.90;;
18376;SDS011;9315;52.624;13.544;2023-04-25T10:04:01;17.03;;;2.40;;
18376;SDS011;9315;52.624;13.544;2023-04-25T10:06:33;9.60;;;2.00;;
18376;SDS011;9315;52.624;13.544;2023-04-25T10:09:01;11.33;;;1.73;;
18376;SDS011;9315;52.624;13.544;2023-04-25T10:11:30;13.50;;;2.10;;
18376;SDS011;9315;52.624;13.544;2023-04-25T10:13:58;14.67;;;1.80;;
18376;SDS011;9315;52.624;13.544;2023-04-25T10:16:27;10.77;;;1.97;;
18376;SDS011;9315;52.624;13.544;2023-04-25T10:18:58;13.23;;;2.77;;
18376;SDS011;9315;52.624;13.544;2023-04-25T10:21:26;11.90;;;1.97;;
18376;SDS011;9315;52.624;13.544;2023-04-25T10:23:57;13.47;;;2.00;;
18376;SDS011;9315;52.624;13.544;2023-04-25T10:26:26;9.40;;;1.63;;
18376;SDS011;9315;52.624;13.544;2023-04-25T10:29:00;7.03;;;1.57;;
18376;SDS011;9315;52.624;13.544;2023-04-25T10:31:30;9.50;;;2.13;;
18376;SDS011;9315;52.624;13.544;2023-04-25T10:34:01;9.70;;;1.80;;
18376;SDS011;9315;52.624;13.544;2023-04-25T10:36:31;9.00;;;1.70;;
18376;SDS011;9315;52.624;13.544;2023-04-25T10:39:02;7.30;;;1.70;;
18376;SDS011;9315;52.624;13.544;2023-04-25T10:41:47;7.83;;;2.40;;
18376;SDS011;9315;52.624;13.544;2023-04-25T10:44:28;13.33;;;1.40;;
18376;SDS011;9315;52.624;13.544;2023-04-25T10:46:57;7.57;;;1.63;;
18376;SDS011;9315;52.624;13.544;2023-04-25T10:54:55;5.83;;;1.47;;
18376;SDS011;9315;52.624;13.544;2023-04-25T11:00:11;9.30;;;2.03;;
18376;SDS011;9315;52.624;13.544;2023-04-25T11:02:48;7.53;;;1.50;;
18376;SDS011;9315;52.624;13.544;2023-04-25T11:05:31;10.30;;;2.30;;
18376;SDS011;9315;52.624;13.544;2023-04-25T11:08:25;7.83;;;1.67;;
18376;SDS011;9315;52.624;13.544;2023-04-25T11:11:17;10.43;;;1.93;;
18376;SDS011;9315;52.624;13.544;2023-04-25T11:13:48;8.97;;;1.30;;
18376;SDS011;9315;52.624;13.544;2023-04-25T11:16:17;14.23;;;2.07;;
18376;SDS011;9315;52.624;13.544;2023-04-25T11:18:53;10.83;;;1.77;;
18376;SDS011;9315;52.624;13.544;2023-04-25T11:21:27;14.20;;;1.80;;
18376;SDS011;9315;52.624;13.544;2023-04-25T11:23:59;12.13;;;1.60;;
18376;SDS011;9315;52.624;13.544;2023-04-25T11:26:28;6.27;;;1.60;;
18376;SDS011;9315;52.624;13.544;2023-04-25T11:28:57;4.33;;;1.13;;
18376;SDS011;9315;52.624;13.544;2023-04-25T11:31:26;6.63;;;1.17;;
18376;SDS011;9315;52.624;13.544;2023-04-25T11:33:58;6.37;;;1.00;;
18376;SDS011;9315;52.624;13.544;2023-04-25T11:36:26;6.23;;;1.43;;
18376;SDS011;9315;52.624;13.544;2023-04-25T11:38:53;6.13;;;1.40;;
18376;SDS011;9315;52.624;13.544;2023-04-25T11:41:21;7.30;;;1.40;;
18376;SDS011;9315;52.624;13.544;2023-04-25T11:43:48;10.00;;;1.30;;
18376;SDS011;9315;52.624;13.544;2023-04-25T11:46:18;5.93;;;1.30;;
18376;SDS011;9315;52.624;13.544;2023-04-25T11:48:49;6.30;;;1.23;;
18376;SDS011;9315;52.624;13.544;2023-04-25T11:51:17;7.00;;;1.20;;
18376;SDS011;9315;52.624;13.544;2023-04-25T11:53:45;10.87;;;1.40;;
18376;SDS011;9315;52.624;13.544;2023-04-25T11:56:12;7.80;;;1.70;;
18376;SDS011;9315;52.624;13.544;2023-04-25T12:01:37;8.07;;;1.73;;
18376;SDS011;9315;52.624;13.544;2023-04-25T12:04:12;6.30;;;1.50;;
18376;SDS011;9315;52.624;13.544;2023-04-25T12:06:48;10.40;;;1.63;;
18376;SDS011;9315;52.624;13.544;2023-04-25T12:09:19;7.30;;;1.47;;
18376;SDS011;9315;52.624;13.544;2023-04-25T12:11:55;9.07;;;1.70;;
18376;SDS011;9315;52.624;13.544;2023-04-25T12:14:30;13.10;;;1.47;;
18376;SDS011;9315;52.624;13.544;2023-04-25T12:17:02;9.43;;;1.53;;
18376;SDS011;9315;52.624;13.544;2023-04-25T12:19:34;8.70;;;1.97;;
18376;SDS011;9315;52.624;13.544;2023-04-25T12:22:27;10.13;;;1.70;;
18376;SDS011;9315;52.624;13.544;2023-04-25T12:24:54;10.00;;;1.60;;
18376;SDS011;9315;52.624;13.544;2023-04-25T12:27:25;6.23;;;1.50;;
18376;SDS011;9315;52.624;13.544;2023-04-25T12:29:54;8.87;;;1.40;;
18376;SDS011;9315;52.624;13.544;2023-04-25T12:32:22;5.67;;;1.30;;
18376;SDS011;9315;52.624;13.544;2023-04-25T12:34:50;8.07;;;1.10;;
18376;SDS011;9315;52.624;13.544;2023-04-25T12:37:18;6.00;;;1.20;;
18376;SDS011;9315;52.624;13.544;2023-04-25T12:39:45;9.83;;;1.70;;
18376;SDS011;9315;52.624;13.544;2023-04-25T12:42:16;6.80;;;1.60;;
18376;SDS011;9315;52.624;13.544;2023-04-25T12:44:46;5.63;;;1.37;;
18376;SDS011;9315;52.624;13.544;2023-04-25T12:47:13;9.07;;;2.13;;
18376;SDS011;9315;52.624;13.544;2023-04-25T12:49:41;5.43;;;1.07;;
18376;SDS011;9315;52.624;13.544;2023-04-25T12:52:08;5.27;;;1.30;;
18376;SDS011;9315;52.624;13.544;2023-04-25T12:54:36;7.30;;;1.60;;
18376;SDS011;9315;52.624;13.544;2023-04-25T12:57:09;7.90;;;1.53;;
18376;SDS011;9315;52.624;13.544;2023-04-25T12:59:37;9.00;;;2.07;;
18376;SDS011;9315;52.624;13.544;2023-04-25T13:02:04;11.47;;;1.60;;
18376;SDS011;9315;52.624;13.544;2023-04-25T13:04:32;8.97;;;1.20;;
18376;SDS011;9315;52.624;13.544;2023-04-25T13:06:59;8.53;;;1.50;;
18376;SDS011;9315;52.624;13.544;2023-04-25T13:09:26;7.83;;;1.23;;
18376;SDS011;9315;52.624;13.544;2023-04-25T13:11:54;5.73;;;1.20;;
18376;SDS011;9315;52.624;13.544;2023-04-25T13:14:24;5.57;;;1.20;;
18376;SDS011;9315;52.624;13.544;2023-04-25T13:16:51;5.50;;;1.37;;
18376;SDS011;9315;52.624;13.544;2023-04-25T13:19:19;7.53;;;1.60;;
18376;SDS011;9315;52.624;13.544;2023-04-25T13:21:46;14.03;;;1.93;;
18376;SDS011;9315;52.624;13.544;2023-04-25T13:24:13;8.77;;;1.27;;
18376;SDS011;9315;52.624;13.544;2023-04-25T13:26:41;7.93;;;1.70;;
18376;SDS011;9315;52.624;13.544;2023-04-25T13:29:09;11.20;;;1.63;;
18376;SDS011;9315;52.624;13.544;2023-04-25T13:31:40;12.43;;;1.67;;
18376;SDS011;9315;52.624;13.544;2023-04-25T13:34:08;8.90;;;1.80;;
18376;SDS011;9315;52.624;13.544;2023-04-25T13:36:36;9.10;;;1.37;;
18376;SDS011;9315;52.624;13.544;2023-04-25T13:39:12;13.87;;;2.23;;
18376;SDS011;9315;52.624;13.544;2023-04-25T13:41:39;11.70;;;1.60;;
18376;SDS011;9315;52.624;13.544;2023-04-25T13:44:06;7.20;;;1.20;;
18376;SDS011;9315;52.624;13.544;2023-04-25T13:46:33;14.77;;;2.10;;
18376;SDS011;9315;52.624;13.544;2023-04-25T13:49:11;6.63;;;1.40;;
18376;SDS011;9315;52.624;13.544;2023-04-25T13:51:44;6.43;;;1.17;;
18376;SDS011;9315;52.624;13.544;2023-04-25T13:54:14;11.43;;;1.20;;
18376;SDS011;9315;52.624;13.544;2023-04-25T13:56:41;8.03;;;1.33;;
18376;SDS011;9315;52.624;13.544;2023-04-25T13:59:08;6.47;;;1.07;;
18376;SDS011;9315;52.624;13.544;2023-04-25T14:01:36;7.87;;;0.97;;
18376;SDS011;9315;52.624;13.544;2023-04-25T14:04:06;5.40;;;1.00;;
18376;SDS011;9315;52.624;13.544;2023-04-25T14:06:34;15.70;;;1.60;;
18376;SDS011;9315;52.624;13.544;2023-04-25T14:09:03;10.33;;;1.60;;
18376;SDS011;9315;52.624;13.544;2023-04-25T14:11:32;8.20;;;1.30;;
18376;SDS011;9315;52.624;13.544;2023-04-25T14:13:59;10.93;;;2.00;;
18376;SDS011;9315;52.624;13.544;2023-04-25T14:16:29;4.40;;;1.77;;
18376;SDS011;9315;52.624;13.544;2023-04-25T14:19:00;10.53;;;1.80;;
18376;SDS011;9315;52.624;13.544;2023-04-25T14:21:27;5.13;;;1.33;;
18376;SDS011;9315;52.624;13.544;2023-04-25T14:23:58;14.27;;;2.23;;
18376;SDS011;9315;52.624;13.544;2023-04-25T14:26:26;5.63;;;1.27;;
18376;SDS011;9315;52.624;13.544;2023-04-25T14:28:53;12.03;;;1.93;;
18376;SDS011;9315;52.624;13.544;2023-04-25T14:31:29;4.53;;;1.53;;
18376;SDS011;9315;52.624;13.544;2023-04-25T14:33:57;5.53;;;1.23;;
18376;SDS011;9315;52.624;13.544;2023-04-25T14:36:25;6.87;;;1.20;;
18376;SDS011;9315;52.624;13.544;2023-04-25T14:38:54;5.40;;;1.30;;
18376;SDS011;9315;52.624;13.544;2023-04-25T14:41:22;3.80;;;1.00;;
18376;SDS011;9315;52.624;13.544;2023-04-25T14:43:50;5.57;;;1.10;;
18376;SDS011;9315;52.624;13.544;2023-04-25T14:46:19;7.53;;;1.20;;
18376;SDS011;9315;52.624;13.544;2023-04-25T14:48:47;7.37;;;1.97;;
18376;SDS011;9315;52.624;13.544;2023-04-25T14:51:14;13.50;;;1.23;;
18376;SDS011;9315;52.624;13.544;2023-04-25T14:53:41;4.53;;;1.03;;
18376;SDS011;9315;52.624;13.544;2023-04-25T14:56:08;5.90;;;1.47;;
18376;SDS011;9315;52.624;13.544;2023-04-25T14:58:36;4.80;;;0.90;;
18376;SDS011;9315;52.624;13.544;2023-04-25T15:01:04;4.90;;;0.97;;
18376;SDS011;9315;52.624;13.544;2023-04-25T15:03:33;7.53;;;1.07;;
18376;SDS011;9315;52.624;13.544;2023-04-25T15:06:00;10.10;;;0.93;;
18376;SDS011;9315;52.624;13.544;2023-04-25T15:08:27;6.23;;;1.50;;
18376;SDS011;9315;52.624;13.544;2023-04-25T15:10:57;4.80;;;1.10;;
18376;SDS011;9315;52.624;13.544;2023-04-25T15:13:24;12.33;;;1.40;;